createdAt,value
2022-12-15T05:08:55.757Z,91.29
2022-12-15T05:12:16.475Z,91.84
2022-12-15T05:15:36.962Z,91.12
2022-12-15T05:18:57.859Z,92.92
2022-12-15T05:22:18.732Z,92.71
2022-12-15T05:25:39.929Z,92.99
2022-12-15T05:29:00.637Z,92.87
2022-12-15T05:32:03.121Z,94.58
2022-12-15T05:35:05.724Z,94.48
2022-12-15T05:38:08.097Z,92.94
2022-12-15T05:41:10.207Z,91.97
2022-12-15T05:44:12.897Z,94.56
2022-12-15T05:47:14.935Z,95.00
2022-12-15T05:50:17.274Z,95.19
2022-12-15T05:53:19.309Z,93.98
2022-12-15T05:56:21.806Z,92.88
2022-12-15T05:59:23.945Z,91.95
2022-12-15T06:02:28.770Z,89.95
2022-12-15T06:05:31.113Z,90.86
2022-12-15T06:08:35.199Z,91.40
2022-12-15T06:11:37.742Z,91.42
2022-12-15T06:14:39.862Z,90.10
2022-12-15T06:17:42.186Z,89.88
2022-12-15T06:20:44.232Z,89.36
2022-12-15T06:23:47.996Z,89.80
2022-12-15T06:26:50.291Z,89.91
2022-12-15T06:29:53.019Z,90.46
2022-12-15T06:32:55.061Z,91.48
2022-12-15T06:35:57.841Z,91.33
2022-12-15T06:39:05.108Z,91.11
2022-12-15T06:42:07.429Z,90.72
2022-12-15T06:45:10.012Z,90.52
2022-12-15T06:48:12.354Z,90.73
2022-12-15T06:51:17.405Z,90.46
2022-12-15T06:54:20.003Z,88.82
2022-12-15T06:57:22.036Z,89.25
2022-12-15T07:00:24.360Z,89.80
2022-12-15T07:03:26.607Z,89.43
2022-12-15T07:06:36.054Z,89.84
2022-12-15T07:09:38.191Z,89.99
2022-12-15T07:12:40.594Z,90.40
2022-12-15T07:15:44.246Z,91.21
2022-12-15T07:18:47.162Z,90.90
2022-12-15T07:21:49.211Z,90.06
2022-12-15T07:24:51.497Z,89.40
2022-12-15T07:27:56.152Z,90.49
2022-12-15T07:31:06.241Z,90.53
2022-12-15T07:34:08.311Z,89.92
2022-12-15T07:37:10.767Z,89.68
2022-12-15T07:40:12.876Z,89.73
2022-12-15T07:43:15.869Z,89.86
2022-12-15T07:46:18.299Z,90.64
2022-12-15T07:49:21.277Z,91.79
2022-12-15T07:52:23.871Z,91.26
2022-12-15T07:55:57.229Z,91.01
2022-12-15T07:58:51.695Z,90.78
2022-12-15T08:01:54.136Z,89.60
2022-12-15T08:04:56.643Z,91.75
2022-12-15T08:08:15.581Z,91.10
2022-12-15T08:11:26.091Z,89.89
2022-12-15T08:14:32.837Z,87.85
2022-12-15T08:17:46.926Z,87.81
2022-12-15T08:20:50.341Z,86.94
2022-12-15T08:24:26.471Z,86.90
2022-12-15T08:27:29.166Z,86.78
2022-12-15T08:30:33.156Z,88.03
2022-12-15T08:33:36.873Z,88.02
2022-12-15T08:36:39.575Z,87.42
2022-12-15T08:39:42.508Z,86.49
2022-12-15T08:42:45.476Z,87.59
2022-12-15T08:45:51.316Z,87.01
2022-12-15T08:49:04.927Z,86.64
2022-12-15T08:52:12.841Z,85.17
2022-12-15T08:55:22.462Z,86.26
2022-12-15T08:58:26.401Z,87.03
2022-12-15T09:01:33.648Z,88.01
2022-12-15T09:04:36.565Z,88.04
2022-12-15T09:07:45.257Z,85.69
2022-12-15T09:10:52.379Z,87.96
2022-12-15T09:13:57.828Z,86.99
2022-12-15T09:17:01.767Z,84.95
2022-12-15T09:20:17.987Z,83.45
2022-12-15T09:23:27.581Z,84.70
2022-12-15T09:26:45.953Z,85.14
2022-12-15T09:30:03.313Z,86.36
2022-12-15T09:33:06.298Z,85.62
2022-12-15T09:36:10.282Z,86.08
2022-12-15T09:39:12.797Z,86.17
2022-12-15T09:42:25.345Z,84.04
2022-12-15T09:45:43.446Z,83.81
2022-12-15T09:48:46.789Z,82.70
2022-12-15T09:52:17.001Z,83.50
2022-12-15T09:55:30.646Z,85.08
2022-12-15T09:58:51.801Z,85.17
2022-12-15T10:02:40.379Z,85.22
2022-12-15T10:06:18.308Z,85.93
2022-12-15T10:09:27.456Z,87.62
2022-12-15T10:12:37.051Z,87.59
2022-12-15T10:15:50.439Z,88.16
2022-12-15T10:19:08.910Z,87.75
2022-12-15T10:22:14.375Z,88.30
2022-12-15T10:28:59.230Z,89.15
2022-12-15T10:32:10.561Z,90.07
2022-12-15T10:35:21.638Z,87.85
2022-12-15T10:38:38.603Z,86.35
2022-12-15T10:41:41.253Z,86.49
2022-12-15T10:44:50.418Z,86.70
2022-12-15T10:48:06.870Z,87.41
2022-12-15T10:51:32.997Z,87.40
2022-12-15T10:54:43.399Z,84.69
2022-12-15T10:58:01.428Z,83.77
2022-12-15T11:01:14.910Z,83.90
2022-12-15T11:04:27.680Z,84.33
2022-12-15T11:07:35.070Z,85.36
2022-12-15T11:11:11.735Z,86.88
2022-12-15T11:14:17.741Z,87.03
2022-12-15T11:17:22.884Z,86.72
2022-12-15T11:20:33.372Z,87.43
2022-12-15T11:23:48.869Z,86.64
2022-12-15T11:26:58.622Z,87.47
2022-12-15T11:30:22.132Z,89.18
2022-12-15T11:33:24.301Z,88.35
2022-12-15T11:37:02.156Z,87.45
2022-12-15T11:40:35.769Z,86.91
2022-12-15T11:44:00.974Z,87.96
2022-12-15T11:47:14.840Z,86.71
2022-12-15T11:50:27.365Z,86.01
2022-12-15T11:54:14.737Z,86.16
2022-12-15T11:57:44.402Z,87.47
2022-12-15T12:01:26.457Z,86.81
2022-12-15T12:04:36.179Z,88.59
2022-12-15T12:07:47.920Z,89.00
2022-12-15T12:11:03.755Z,88.16
2022-12-15T12:15:18.263Z,88.41
2022-12-15T12:18:23.040Z,88.20
2022-12-15T12:21:31.745Z,89.85
2022-12-15T12:24:41.359Z,91.12
2022-12-15T12:28:24.742Z,94.06
2022-12-15T12:31:42.376Z,94.84
2022-12-15T12:35:29.778Z,91.73
2022-12-15T12:38:29.874Z,90.54
2022-12-15T12:41:47.061Z,89.86
2022-12-15T12:44:49.803Z,91.08
2022-12-15T12:47:56.109Z,93.06
2022-12-15T12:51:17.753Z,93.33
2022-12-15T12:54:37.812Z,93.41
2022-12-15T12:57:41.865Z,92.75
2022-12-15T13:01:15.144Z,90.06
2022-12-15T13:04:30.922Z,90.86
2022-12-15T13:07:40.961Z,91.52
2022-12-15T13:10:47.906Z,93.35
2022-12-15T13:13:53.440Z,93.82
2022-12-15T13:17:27.706Z,93.05
2022-12-15T13:20:33.050Z,93.81
2022-12-15T13:23:40.297Z,93.34
2022-12-15T13:26:52.433Z,92.95
2022-12-15T13:30:01.087Z,94.41
2022-12-15T13:33:19.543Z,94.35
2022-12-15T13:36:37.854Z,94.56
2022-12-15T13:39:58.384Z,97.25
2022-12-15T13:43:04.048Z,100.00
2022-12-15T13:46:20.490Z,100.00
2022-12-15T13:49:31.304Z,100.00
2022-12-15T13:53:08.504Z,100.00
2022-12-15T13:56:06.612Z,100.00
2022-12-15T13:59:33.396Z,100.00
2022-12-15T14:02:36.996Z,100.00
2022-12-15T14:05:42.835Z,100.00
2022-12-15T14:08:44.956Z,100.00
2022-12-15T14:11:54.390Z,100.00
2022-12-15T14:14:56.663Z,100.00
2022-12-15T14:18:01.666Z,100.00
2022-12-15T14:21:20.031Z,100.00
2022-12-15T14:24:45.009Z,100.00
2022-12-15T14:27:50.755Z,100.00
2022-12-15T14:30:53.548Z,100.00
2022-12-15T14:34:18.535Z,100.00
2022-12-15T14:37:21.181Z,100.00
2022-12-15T14:40:28.893Z,100.00
2022-12-15T14:43:38.680Z,100.00
2022-12-15T14:46:45.278Z,100.00
2022-12-15T14:49:48.684Z,100.00
2022-12-15T14:53:11.476Z,100.00
2022-12-15T14:56:25.715Z,100.00
2022-12-15T14:59:34.935Z,100.00
2022-12-15T15:02:37.399Z,100.00
2022-12-15T15:03:04.400Z,87.90
2022-12-15T15:05:41.141Z,100.00
2022-12-15T15:08:48.176Z,100.00
2022-12-15T15:11:54.720Z,100.00
2022-12-15T15:15:05.012Z,100.00
2022-12-15T15:18:07.044Z,100.00
2022-12-15T15:21:17.155Z,100.00
2022-12-15T15:24:23.748Z,100.00
2022-12-15T15:27:30.605Z,100.00
2022-12-15T15:30:42.057Z,100.00
2022-12-15T15:33:44.484Z,100.00
2022-12-15T15:36:47.288Z,100.00
2022-12-15T15:39:54.910Z,100.00
2022-12-15T15:42:56.988Z,100.00
2022-12-15T15:46:08.657Z,100.00
2022-12-15T15:49:16.936Z,100.00
2022-12-15T15:52:19.257Z,100.00
2022-12-15T15:55:27.471Z,100.00
2022-12-15T15:58:30.215Z,100.00
2022-12-15T16:01:32.713Z,100.00
2022-12-15T16:04:37.161Z,100.00
2022-12-15T16:07:39.836Z,100.00
2022-12-15T16:10:45.501Z,100.00
2022-12-15T16:13:47.585Z,100.00
2022-12-15T16:16:49.960Z,100.00
2022-12-15T16:23:22.819Z,100.00
2022-12-15T16:26:29.915Z,100.00
2022-12-15T16:29:31.962Z,100.00
2022-12-15T16:32:34.248Z,100.00
2022-12-15T16:35:36.926Z,100.00
2022-12-15T16:38:39.984Z,100.00
2022-12-15T16:41:42.096Z,100.00
2022-12-15T16:44:44.496Z,100.00
2022-12-15T16:47:46.555Z,100.00
